createdAt,value
2022-11-15T00:01:52.983Z,23.30
2022-11-15T00:04:38.832Z,22.13
2022-11-15T00:07:53.459Z,20.40
2022-11-15T00:10:30.497Z,21.85
2022-11-15T00:13:16.554Z,21.63
2022-11-15T00:16:03.316Z,22.52
2022-11-15T00:18:50.964Z,22.63
2022-11-15T00:21:36.947Z,20.02
2022-11-15T00:24:23.300Z,22.63
2022-11-15T00:27:08.894Z,20.88
2022-11-15T00:29:54.939Z,23.70
2022-11-15T00:32:40.242Z,21.75
2022-11-15T00:35:25.993Z,22.85
2022-11-15T00:38:11.870Z,24.30
2022-11-15T00:40:57.540Z,24.30
2022-11-15T00:43:44.724Z,23.77
2022-11-15T00:46:31.010Z,25.02
2022-11-15T00:49:16.507Z,23.85
2022-11-15T00:52:02.628Z,23.85
2022-11-15T00:54:48.230Z,24.75
2022-11-15T00:57:34.552Z,24.05
2022-11-15T01:00:20.353Z,25.02
2022-11-15T01:03:06.126Z,25.23
2022-11-15T01:05:51.974Z,22.30
2022-11-15T01:08:38.821Z,23.98
2022-11-15T01:11:24.455Z,24.25
2022-11-15T01:14:10.651Z,23.42
2022-11-15T01:16:56.082Z,23.50
2022-11-15T01:19:41.988Z,23.27
2022-11-15T01:22:27.846Z,24.92
2022-11-15T01:25:14.135Z,22.92
2022-11-15T01:27:59.870Z,25.00
2022-11-15T01:30:46.138Z,23.48
2022-11-15T01:33:32.384Z,22.13
2022-11-15T01:36:25.213Z,24.27
2022-11-15T01:39:10.764Z,23.23
2022-11-15T01:41:56.945Z,23.17
2022-11-15T01:44:49.122Z,22.67
2022-11-15T01:47:40.747Z,24.17
2022-11-15T01:50:32.000Z,23.42
2022-11-15T01:53:21.725Z,23.23
2022-11-15T01:56:10.823Z,22.30
2022-11-15T01:58:59.206Z,24.35
2022-11-15T02:01:45.246Z,21.92
2022-11-15T02:04:34.945Z,22.23
2022-11-15T02:07:22.780Z,22.48
2022-11-15T02:10:19.748Z,23.25
2022-11-15T02:13:05.769Z,21.10
2022-11-15T02:16:27.284Z,21.63
2022-11-15T02:19:34.188Z,21.13
2022-11-15T02:22:32.314Z,22.25
2022-11-15T02:25:28.369Z,21.10
2022-11-15T02:28:43.513Z,21.38
2022-11-15T02:31:40.917Z,21.02
2022-11-15T02:34:29.382Z,21.02
2022-11-15T02:37:38.018Z,21.20
2022-11-15T02:40:33.560Z,20.50
2022-11-15T02:43:56.783Z,19.30
2022-11-15T02:47:14.614Z,18.02
2022-11-15T02:50:08.251Z,17.30
2022-11-15T02:52:56.634Z,17.90
2022-11-15T02:55:47.416Z,19.65
2022-11-15T02:59:03.238Z,17.15
2022-11-15T03:02:01.071Z,17.48
2022-11-15T03:05:01.863Z,17.73
2022-11-15T03:08:06.456Z,18.77
2022-11-15T03:11:08.246Z,17.48
2022-11-15T03:14:01.408Z,17.83
2022-11-15T03:17:27.526Z,18.85
2022-11-15T03:20:16.866Z,16.50
2022-11-15T03:23:07.969Z,18.15
2022-11-15T03:25:55.913Z,17.10
2022-11-15T03:28:50.733Z,17.67
2022-11-15T03:31:50.798Z,16.88
2022-11-15T03:34:43.186Z,18.75
2022-11-15T03:38:13.013Z,16.35
2022-11-15T03:41:16.853Z,18.17
2022-11-15T03:44:11.508Z,17.55
2022-11-15T03:47:22.164Z,20.45
2022-11-15T03:50:20.255Z,18.15
2022-11-15T03:53:06.689Z,18.92
2022-11-15T03:55:52.239Z,18.92
2022-11-15T03:58:38.005Z,19.52
2022-11-15T04:01:24.081Z,20.67
2022-11-15T04:04:10.681Z,20.55
2022-11-15T04:06:56.397Z,23.15
2022-11-15T04:10:01.251Z,21.02
2022-11-15T04:12:48.664Z,23.73
2022-11-15T04:15:35.066Z,23.45
2022-11-15T04:18:20.718Z,21.83
2022-11-15T04:21:25.736Z,23.80
2022-11-15T04:24:14.733Z,22.58
2022-11-15T04:27:00.511Z,23.98
2022-11-15T04:29:46.270Z,24.33
2022-11-15T04:32:32.464Z,26.90
2022-11-15T04:35:18.150Z,27.60
2022-11-15T04:38:06.445Z,25.42
2022-11-15T04:40:52.505Z,29.55
2022-11-15T04:43:38.399Z,29.10
2022-11-15T04:46:25.058Z,25.67
2022-11-15T04:49:11.140Z,29.00
2022-11-15T04:51:56.723Z,27.90
2022-11-15T04:54:43.752Z,27.90
2022-11-15T04:57:29.165Z,28.30
2022-11-15T05:00:17.572Z,30.17
2022-11-15T05:03:21.864Z,27.95
2022-11-15T05:06:07.856Z,28.10
2022-11-15T05:08:53.971Z,28.83
2022-11-15T05:11:40.142Z,22.02
2022-11-15T05:14:25.536Z,27.90
2022-11-15T05:17:11.694Z,29.13
2022-11-15T05:19:57.448Z,28.58
2022-11-15T05:22:43.687Z,28.05
2022-11-15T05:25:29.591Z,28.48
2022-11-15T05:28:15.422Z,30.10
2022-11-15T05:31:09.690Z,29.58
2022-11-15T05:33:57.338Z,28.67
2022-11-15T05:36:45.782Z,27.75
2022-11-15T05:39:31.776Z,26.77
2022-11-15T05:42:17.997Z,28.80
2022-11-15T05:45:06.871Z,26.35
2022-11-15T05:47:54.006Z,28.20
2022-11-15T05:50:43.587Z,29.08
2022-11-15T05:53:30.800Z,28.60
2022-11-15T05:59:03.488Z,27.83
2022-11-15T06:01:50.521Z,30.05
2022-11-15T06:04:36.556Z,27.15
2022-11-15T06:07:22.991Z,29.02
2022-11-15T06:10:09.402Z,28.95
2022-11-15T06:12:59.556Z,27.48
2022-11-15T06:15:45.355Z,28.17
2022-11-15T06:18:34.711Z,38.17
2022-11-15T06:21:20.957Z,26.98
2022-11-15T06:24:07.300Z,28.15
2022-11-15T06:26:53.738Z,37.13
2022-11-15T06:29:39.836Z,22.97
2022-11-15T06:32:25.433Z,30.58
2022-11-15T06:35:11.551Z,27.15
2022-11-15T06:38:02.449Z,45.78
2022-11-15T06:40:48.523Z,27.35
2022-11-15T06:43:35.193Z,35.38
2022-11-15T06:46:21.368Z,25.00
2022-11-15T06:49:09.729Z,25.02
2022-11-15T06:51:56.130Z,39.47
2022-11-15T06:54:41.741Z,37.47
2022-11-15T06:57:27.544Z,30.13
2022-11-15T07:00:13.801Z,27.25
2022-11-15T07:03:03.578Z,26.77
2022-11-15T07:05:56.745Z,26.38
2022-11-15T07:08:42.999Z,33.95
2022-11-15T07:11:28.924Z,26.65
2022-11-15T07:14:15.289Z,28.88
2022-11-15T07:17:01.068Z,27.05
2022-11-15T07:19:46.988Z,31.25
2022-11-15T07:22:32.658Z,29.98
2022-11-15T07:25:18.400Z,30.77
2022-11-15T07:28:04.743Z,31.73
2022-11-15T07:30:51.020Z,35.20
2022-11-15T07:33:37.329Z,30.15
2022-11-15T07:36:23.431Z,28.67
2022-11-15T07:39:09.443Z,35.45
2022-11-15T07:42:15.711Z,31.70
2022-11-15T07:45:01.502Z,31.52
2022-11-15T07:47:51.332Z,37.17
2022-11-15T07:50:37.653Z,32.40
2022-11-15T07:53:23.699Z,35.60
2022-11-15T07:56:09.755Z,35.42
2022-11-15T07:58:55.526Z,35.88
2022-11-15T08:01:41.231Z,37.85
2022-11-15T08:04:27.679Z,34.93
2022-11-15T08:07:13.645Z,36.50
2022-11-15T08:10:02.106Z,34.65
2022-11-15T08:12:47.869Z,35.30
2022-11-15T08:15:35.346Z,38.85
2022-11-15T08:18:20.970Z,35.67
2022-11-15T08:21:06.674Z,52.70
2022-11-15T08:23:52.817Z,39.05
2022-11-15T08:26:39.606Z,36.10
2022-11-15T08:29:25.087Z,34.58
2022-11-15T08:32:12.308Z,39.55
2022-11-15T08:34:57.753Z,44.70
2022-11-15T08:37:43.542Z,34.45
2022-11-15T08:40:29.225Z,33.83
2022-11-15T08:43:15.140Z,38.60
2022-11-15T08:46:01.150Z,29.95
2022-11-15T08:48:47.338Z,36.70
2022-11-15T08:51:32.840Z,29.55
2022-11-15T08:54:19.114Z,60.72
2022-11-15T08:57:04.707Z,32.45
2022-11-15T08:59:50.773Z,33.97
2022-11-15T09:02:39.656Z,48.47
2022-11-15T09:05:25.947Z,35.05
2022-11-15T09:08:40.419Z,39.60
2022-11-15T09:11:21.247Z,39.03
2022-11-15T09:14:07.343Z,48.08
2022-11-15T09:16:53.623Z,63.13
2022-11-15T09:19:39.461Z,32.28
2022-11-15T09:22:25.731Z,47.75
2022-11-15T09:25:11.486Z,37.90
2022-11-15T09:27:57.914Z,89.03
2022-11-15T09:30:44.044Z,47.33
2022-11-15T09:33:30.533Z,34.83
2022-11-15T09:36:17.894Z,39.47
2022-11-15T09:39:04.062Z,44.55
2022-11-15T09:41:55.095Z,30.73
2022-11-15T09:45:23.213Z,32.38
2022-11-15T09:48:23.548Z,31.30
2022-11-15T09:51:19.026Z,33.60
2022-11-15T09:54:45.748Z,32.10
2022-11-15T09:56:44.616Z,32.20
2022-11-15T09:59:41.089Z,31.02
2022-11-15T10:02:31.591Z,33.80
2022-11-15T10:05:00.252Z,32.13
2022-11-15T10:07:29.207Z,29.70
2022-11-15T10:10:08.819Z,33.83
2022-11-15T10:12:36.427Z,33.95
2022-11-15T10:15:08.347Z,35.75
2022-11-15T10:17:56.767Z,33.55
2022-11-15T10:20:26.216Z,34.00
2022-11-15T10:23:15.110Z,31.95
2022-11-15T10:25:42.521Z,33.33
2022-11-15T10:28:17.601Z,28.90
2022-11-15T10:30:54.111Z,31.70
2022-11-15T10:33:34.991Z,30.55
2022-11-15T10:36:09.999Z,30.67
2022-11-15T10:38:49.642Z,32.35
2022-11-15T10:41:22.877Z,29.75
2022-11-15T10:44:12.050Z,31.08
2022-11-15T10:46:47.172Z,30.45
2022-11-15T10:49:32.430Z,28.20
2022-11-15T10:52:13.568Z,31.23
2022-11-15T10:54:45.490Z,28.77
2022-11-15T10:57:16.984Z,32.50
2022-11-15T10:59:52.441Z,31.02
2022-11-15T11:02:40.413Z,31.27
2022-11-15T11:05:41.309Z,28.85
2022-11-15T11:08:22.354Z,27.10
2022-11-15T11:11:02.486Z,29.45
2022-11-15T11:13:33.051Z,31.73
2022-11-15T11:16:41.944Z,28.67
2022-11-15T11:19:19.075Z,29.63
2022-11-15T11:21:58.664Z,27.95
2022-11-15T11:24:42.166Z,26.58
2022-11-15T11:27:39.009Z,26.70
2022-11-15T11:30:30.764Z,25.30
2022-11-15T11:33:19.778Z,25.85
2022-11-15T11:36:10.243Z,28.02
2022-11-15T11:38:56.603Z,28.08
2022-11-15T11:41:42.589Z,28.58
2022-11-15T11:44:19.303Z,29.25
2022-11-15T11:47:03.214Z,28.60
2022-11-15T11:49:50.868Z,28.50
2022-11-15T11:52:28.090Z,29.73
2022-11-15T11:55:24.042Z,28.20
2022-11-15T11:58:29.337Z,25.80
2022-11-15T12:01:09.895Z,26.08
2022-11-15T12:03:52.725Z,25.52
2022-11-15T12:06:31.011Z,27.10
2022-11-15T12:09:22.027Z,26.05
2022-11-15T12:12:10.132Z,28.38
2022-11-15T12:15:00.319Z,25.83
2022-11-15T12:17:33.939Z,24.65
2022-11-15T12:20:04.408Z,23.00
2022-11-15T12:23:02.958Z,22.52
2022-11-15T12:25:52.629Z,23.10
2022-11-15T12:28:29.453Z,22.98
2022-11-15T12:31:06.296Z,23.23
2022-11-15T12:33:47.257Z,23.85
2022-11-15T12:36:23.692Z,23.85
2022-11-15T12:39:09.808Z,23.27
2022-11-15T12:41:42.584Z,23.42
2022-11-15T12:44:34.562Z,24.38
2022-11-15T12:47:23.401Z,22.83
2022-11-15T12:49:51.327Z,23.45
2022-11-15T12:52:18.602Z,23.45
2022-11-15T12:55:00.340Z,22.27
2022-11-15T12:57:31.334Z,22.77
2022-11-15T13:00:02.964Z,24.88
2022-11-15T13:02:34.668Z,21.02
2022-11-15T13:05:20.502Z,20.10
2022-11-15T13:07:47.746Z,20.88
2022-11-15T13:10:15.274Z,24.70
2022-11-15T13:12:45.596Z,19.95
2022-11-15T13:15:13.073Z,21.95
2022-11-15T13:17:58.709Z,22.05
2022-11-15T13:20:31.940Z,21.40
2022-11-15T13:23:03.380Z,22.40
2022-11-15T13:25:39.820Z,23.05
2022-11-15T13:28:15.504Z,20.87
2022-11-15T13:30:54.523Z,20.80
2022-11-15T13:33:21.758Z,20.50
2022-11-15T13:35:52.842Z,25.05
2022-11-15T13:38:29.807Z,20.75
2022-11-15T13:40:59.618Z,21.05
2022-11-15T13:43:29.296Z,22.42
2022-11-15T13:46:07.072Z,22.67
2022-11-15T13:48:35.079Z,22.15
2022-11-15T13:51:06.450Z,25.58
2022-11-15T13:53:36.253Z,22.13
2022-11-15T13:56:04.691Z,19.83
2022-11-15T13:58:32.455Z,20.33
2022-11-15T14:01:05.367Z,19.73
2022-11-15T14:03:35.974Z,19.48
2022-11-15T14:06:17.022Z,20.15
2022-11-15T14:08:59.725Z,19.95
2022-11-15T14:11:28.233Z,18.13
2022-11-15T14:14:10.789Z,20.40
2022-11-15T14:16:58.586Z,17.88
2022-11-15T14:19:25.830Z,19.23
2022-11-15T14:22:12.414Z,18.52
2022-11-15T14:24:40.598Z,20.20
2022-11-15T14:27:28.734Z,19.65
2022-11-15T14:29:56.580Z,20.88
2022-11-15T14:32:29.818Z,19.70
2022-11-15T14:35:02.483Z,17.77
2022-11-15T14:37:34.629Z,20.77
2022-11-15T14:40:07.069Z,20.42
2022-11-15T14:42:34.793Z,18.10
2022-11-15T14:45:02.021Z,18.65
2022-11-15T14:47:29.463Z,19.25
2022-11-15T14:49:56.732Z,17.73
2022-11-15T14:52:31.830Z,17.70
2022-11-15T14:55:00.702Z,18.50
2022-11-15T14:57:28.221Z,19.38
2022-11-15T14:59:56.631Z,19.80
2022-11-15T15:02:26.128Z,19.95
2022-11-15T15:04:54.763Z,21.10
2022-11-15T15:07:23.254Z,21.35
2022-11-15T15:09:50.633Z,21.88
2022-11-15T15:12:19.437Z,22.02
2022-11-15T15:14:47.869Z,24.45
2022-11-15T15:17:15.892Z,23.02
2022-11-15T15:19:43.610Z,26.23
2022-11-15T15:22:16.560Z,23.10
2022-11-15T15:24:45.136Z,26.50
2022-11-15T15:27:13.410Z,25.90
2022-11-15T15:29:42.090Z,24.75
2022-11-15T15:32:12.606Z,26.55
2022-11-15T15:34:40.285Z,24.77
2022-11-15T15:37:10.469Z,23.27
2022-11-15T15:39:37.629Z,22.00
2022-11-15T15:42:05.361Z,22.77
2022-11-15T15:44:32.589Z,24.73
2022-11-15T15:47:00.153Z,20.80
2022-11-15T15:49:27.325Z,21.13
2022-11-15T15:51:55.151Z,20.10
2022-11-15T15:54:22.330Z,19.90
2022-11-15T15:56:54.941Z,25.60
2022-11-15T15:59:23.427Z,26.58
2022-11-15T16:01:51.147Z,23.48
2022-11-15T16:04:18.414Z,24.23
2022-11-15T16:06:46.035Z,24.80
2022-11-15T16:09:18.538Z,21.83
2022-11-15T16:11:47.301Z,22.27
2022-11-15T16:14:14.614Z,21.58
2022-11-15T16:16:42.478Z,20.92
2022-11-15T16:19:11.605Z,21.13
2022-11-15T16:21:39.287Z,22.38
2022-11-15T16:24:06.552Z,22.33
2022-11-15T16:26:35.889Z,22.17
2022-11-15T16:29:03.222Z,23.88
2022-11-15T16:31:30.812Z,26.35
2022-11-15T16:33:57.924Z,22.38
2022-11-15T16:36:30.807Z,20.40
2022-11-15T16:38:59.336Z,22.90
2022-11-15T16:41:27.313Z,20.77
2022-11-15T16:43:54.571Z,20.83
2022-11-15T16:46:27.407Z,18.77
2022-11-15T16:48:55.252Z,19.27
2022-11-15T16:51:23.458Z,20.67
2022-11-15T16:53:50.782Z,21.65
2022-11-15T16:56:18.167Z,21.77
2022-11-15T16:58:45.379Z,21.00
2022-11-15T17:01:23.239Z,22.70
2022-11-15T17:03:50.532Z,19.33
2022-11-15T17:06:18.827Z,21.25
2022-11-15T17:08:46.707Z,21.85
2022-11-15T17:11:22.858Z,22.10
2022-11-15T17:13:50.168Z,18.17
2022-11-15T17:16:18.887Z,17.30
2022-11-15T17:18:50.643Z,19.05
2022-11-15T17:21:20.760Z,21.27
2022-11-15T17:23:48.507Z,21.02
2022-11-15T17:26:35.011Z,18.80
2022-11-15T17:29:07.817Z,17.63
2022-11-15T17:31:36.890Z,21.00
2022-11-15T17:34:05.500Z,21.27
2022-11-15T17:36:33.800Z,23.75
2022-11-15T17:39:00.933Z,33.53
2022-11-15T17:41:29.233Z,27.80
2022-11-15T17:43:58.571Z,23.42
2022-11-15T17:46:27.237Z,25.58
2022-11-15T17:48:55.995Z,43.80
2022-11-15T17:51:24.231Z,23.60
2022-11-15T17:53:51.815Z,23.40
2022-11-15T17:56:21.451Z,22.75
2022-11-15T17:58:53.272Z,24.58
2022-11-15T18:01:25.724Z,24.75
2022-11-15T18:03:54.414Z,29.20
2022-11-15T18:06:24.757Z,24.05
2022-11-15T18:08:53.905Z,25.58
2022-11-15T18:11:26.991Z,24.13
2022-11-15T18:13:57.429Z,22.80
2022-11-15T18:16:28.628Z,22.17
2022-11-15T18:18:55.866Z,20.60
2022-11-15T18:21:28.546Z,22.08
2022-11-15T18:24:02.517Z,22.98
2022-11-15T18:26:30.891Z,22.60
2022-11-15T18:29:04.504Z,21.70
2022-11-15T18:31:32.411Z,22.05
2022-11-15T18:34:00.680Z,27.20
2022-11-15T18:36:30.181Z,25.45
2022-11-15T18:39:02.775Z,27.60
2022-11-15T18:41:31.635Z,26.80
2022-11-15T18:44:01.975Z,27.67
2022-11-15T18:46:33.681Z,28.33
2022-11-15T18:49:02.570Z,25.17
2022-11-15T18:51:31.574Z,27.98
2022-11-15T18:54:00.846Z,26.65
2022-11-15T18:56:31.152Z,27.25
2022-11-15T18:59:00.614Z,25.88
2022-11-15T19:01:31.114Z,25.08
2022-11-15T19:03:59.110Z,25.85
2022-11-15T19:06:29.068Z,25.45
2022-11-15T19:08:58.358Z,28.55
2022-11-15T19:11:31.399Z,23.92
2022-11-15T19:14:00.490Z,24.67
2022-11-15T19:16:28.235Z,43.05
2022-11-15T19:18:56.822Z,26.98
2022-11-15T19:21:25.851Z,22.65
2022-11-15T19:23:54.260Z,27.00
2022-11-15T19:26:23.331Z,24.48
2022-11-15T19:28:59.986Z,23.33
2022-11-15T19:33:58.096Z,20.73
2022-11-15T19:36:29.159Z,21.95
2022-11-15T19:38:56.590Z,22.98
2022-11-15T19:41:25.094Z,21.45
2022-11-15T19:43:52.971Z,21.58
2022-11-15T19:46:23.617Z,26.23
2022-11-15T19:48:51.665Z,29.75
2022-11-15T19:51:24.575Z,35.17
2022-11-15T19:53:56.758Z,29.30
2022-11-15T19:56:24.757Z,34.38
2022-11-15T19:58:56.241Z,34.38
2022-11-15T20:01:23.754Z,30.42
2022-11-15T20:03:54.765Z,25.92
2022-11-15T20:06:25.274Z,29.73
2022-11-15T20:08:52.836Z,30.85
2022-11-15T20:11:20.415Z,25.95
2022-11-15T20:13:47.770Z,26.25
2022-11-15T20:16:21.356Z,30.58
2022-11-15T20:18:50.413Z,35.28
2022-11-15T20:21:18.922Z,37.25
2022-11-15T20:23:47.714Z,23.85
2022-11-15T20:26:15.948Z,27.67
2022-11-15T20:28:44.846Z,37.10
2022-11-15T20:31:12.614Z,37.30
2022-11-15T20:33:40.164Z,32.30
2022-11-15T20:36:13.583Z,31.55
2022-11-15T20:38:41.113Z,29.67
2022-11-15T20:41:08.741Z,41.85
2022-11-15T20:43:36.063Z,33.15
2022-11-15T20:46:04.074Z,36.35
2022-11-15T20:48:31.872Z,28.25
2022-11-15T20:51:17.385Z,26.77
2022-11-15T20:53:46.105Z,29.45
2022-11-15T20:56:20.491Z,29.70
2022-11-15T20:58:50.345Z,28.35
2022-11-15T21:01:23.793Z,27.92
2022-11-15T21:03:55.755Z,28.88
2022-11-15T21:06:24.478Z,25.98
2022-11-15T21:09:11.495Z,26.05
2022-11-15T21:11:57.884Z,24.02
2022-11-15T21:14:25.350Z,25.73
2022-11-15T21:16:52.949Z,25.63
2022-11-15T21:19:25.385Z,25.05
2022-11-15T21:21:55.730Z,25.75
2022-11-15T21:24:24.704Z,29.60
2022-11-15T21:26:52.465Z,26.30
2022-11-15T21:29:19.684Z,25.05
2022-11-15T21:31:48.741Z,27.85
2022-11-15T21:34:17.440Z,26.88
2022-11-15T21:36:45.192Z,28.90
2022-11-15T21:39:12.577Z,30.90
2022-11-15T21:41:40.120Z,29.60
2022-11-15T21:44:07.432Z,29.45
2022-11-15T21:46:37.160Z,25.85
2022-11-15T21:49:05.654Z,26.55
2022-11-15T21:51:33.633Z,28.08
2022-11-15T21:54:01.223Z,33.20
2022-11-15T21:56:29.686Z,32.65
2022-11-15T21:58:57.126Z,27.98
2022-11-15T22:01:44.854Z,29.63
2022-11-15T22:06:39.855Z,28.45
2022-11-15T22:09:07.414Z,29.63
2022-11-15T22:11:35.417Z,28.13
2022-11-15T22:14:02.997Z,31.05
2022-11-15T22:16:31.140Z,28.95
2022-11-15T22:18:58.922Z,26.38
2022-11-15T22:21:26.403Z,25.83
2022-11-15T22:23:53.700Z,27.33
2022-11-15T22:26:23.733Z,24.95
2022-11-15T22:28:51.668Z,24.85
2022-11-15T22:31:19.443Z,24.52
2022-11-15T22:33:47.016Z,24.15
2022-11-15T22:36:14.680Z,27.35
2022-11-15T22:38:42.015Z,28.15
2022-11-15T22:41:09.922Z,29.60
2022-11-15T22:43:37.169Z,30.50
2022-11-15T22:46:05.164Z,31.73
2022-11-15T22:48:36.091Z,26.85
2022-11-15T22:51:05.441Z,25.67
2022-11-15T22:53:32.655Z,26.38
2022-11-15T22:56:02.903Z,25.10
2022-11-15T22:58:32.336Z,25.40
2022-11-15T23:01:03.207Z,25.55
2022-11-15T23:03:31.938Z,25.23
2022-11-15T23:06:05.319Z,27.80
2022-11-15T23:08:32.946Z,28.95
2022-11-15T23:11:20.643Z,29.17
2022-11-15T23:16:23.965Z,24.20
2022-11-15T23:18:57.077Z,27.52
2022-11-15T23:21:46.453Z,25.17
2022-11-15T23:24:14.682Z,27.63
2022-11-15T23:26:42.726Z,29.73
2022-11-15T23:29:12.625Z,23.70
2022-11-15T23:32:02.148Z,25.30
2022-11-15T23:34:35.254Z,28.05
2022-11-15T23:37:02.819Z,24.85
2022-11-15T23:39:30.065Z,26.90
2022-11-15T23:41:57.643Z,27.15
2022-11-15T23:44:25.547Z,27.95
2022-11-15T23:46:53.250Z,29.83
2022-11-15T23:49:21.296Z,24.88
2022-11-15T23:51:49.156Z,24.52
2022-11-15T23:54:16.387Z,22.90
2022-11-15T23:56:43.964Z,21.90
2022-11-15T23:59:11.155Z,21.30
